Time;durP1;ratioP1;P1;durP2;ratioP2;P2;SDS_P1;SDS_P2;PMS_P1;PMS_P2;Temp;Humidity;BMP_temperature;BMP_pressure;BME280_temperature;BME280_humidity;BME280_pressure;Samples;Min_cycle;Max_cycle;Signal;HPM_P1;HPM_P2
2022/03/25 00:00:39;;;;;;;24.17;12.60;;;4.30;99.90;3.40;101323;;;;575646;245;24112;-84
2022/03/25 00:03:07;;;;;;;27.93;14.00;;;4.30;99.90;3.30;101319;;;;584344;245;24106;-85
2022/03/25 00:05:32;;;;;;;33.27;14.27;;;4.20;99.90;3.30;101315;;;;584557;245;24124;-83
2022/03/25 00:08:00;;;;;;;21.70;10.30;;;4.20;99.90;3.30;101316;;;;575557;245;24083;-85
2022/03/25 00:10:27;;;;;;;25.43;14.40;;;4.20;99.90;3.20;101316;;;;575452;245;24162;-84
2022/03/25 00:12:55;;;;;;;30.57;13.30;;;4.10;99.90;3.20;101319;;;;575412;245;24144;-85
2022/03/25 00:15:24;;;;;;;34.20;15.27;;;4.10;99.90;3.20;101322;;;;575289;245;24118;-83
2022/03/25 00:17:52;;;;;;;33.23;15.40;;;4.10;99.90;3.20;101321;;;;584185;245;24129;-84
2022/03/25 00:20:20;;;;;;;28.97;14.43;;;4.10;99.90;3.10;101314;;;;575300;245;24085;-82
2022/03/25 00:22:48;;;;;;;30.10;13.80;;;4.10;99.90;3.10;101313;;;;575372;245;24101;-82
2022/03/25 00:25:16;;;;;;;27.40;13.90;;;4.00;99.90;3.10;101324;;;;575349;245;24174;-80
2022/03/25 00:27:44;;;;;;;37.63;16.73;;;4.00;99.90;3.10;101327;;;;574969;245;24102;-84
2022/03/25 00:30:15;;;;;;;38.45;22.05;;;4.00;99.90;3.10;101317;;;;570424;245;35363;-82
2022/03/25 00:32:40;;;;;;;30.93;18.57;;;4.00;99.90;3.10;101321;;;;574851;245;24123;-85
2022/03/25 00:35:07;;;;;;;32.87;16.17;;;4.00;99.90;3.10;101320;;;;575487;245;24070;-81
2022/03/25 00:37:35;;;;;;;34.30;16.23;;;4.00;99.90;3.00;101314;;;;575204;245;24099;-83
2022/03/25 00:40:04;;;;;;;32.87;14.93;;;3.90;99.90;3.00;101322;;;;575182;245;24127;-79
2022/03/25 00:42:32;;;;;;;32.63;15.27;;;3.90;99.90;3.00;101314;;;;584068;245;24099;-85
2022/03/25 00:45:03;;;;;;;28.53;11.97;;;3.90;99.90;3.00;101307;;;;574796;245;24091;-78
2022/03/25 00:47:28;;;;;;;33.23;16.70;;;3.90;99.90;2.90;101307;;;;575959;245;24083;-79
2022/03/25 00:49:56;;;;;;;29.60;15.40;;;3.90;99.90;2.90;101306;;;;575738;245;24143;-81
2022/03/25 00:52:24;;;;;;;32.13;15.97;;;3.80;99.90;2.90;101306;;;;575573;245;24100;-80
2022/03/25 00:54:52;;;;;;;35.20;15.97;;;3.80;99.90;2.90;101297;;;;575425;245;24103;-78
2022/03/25 00:57:19;;;;;;;28.27;14.60;;;3.80;99.90;2.90;101297;;;;575494;245;24101;-79
2022/03/25 00:59:50;;;;;;;42.75;23.05;;;3.80;99.90;2.80;101286;;;;570311;245;35424;-79
2022/03/25 01:02:15;;;;;;;34.27;17.30;;;3.80;99.90;2.80;101290;;;;585323;240;24087;-78
2022/03/25 01:04:46;;;;;;;35.23;16.97;;;3.80;99.90;2.80;101287;;;;580264;245;24092;-78
2022/03/25 01:07:11;;;;;;;33.33;14.60;;;3.70;99.90;2.80;101286;;;;584769;245;24115;-78
2022/03/25 01:09:39;;;;;;;37.27;17.17;;;3.70;99.90;2.80;101288;;;;575908;245;24093;-79
2022/03/25 01:12:08;;;;;;;31.30;16.37;;;3.70;99.90;2.80;101284;;;;575774;245;24126;-86
2022/03/25 01:14:38;;;;;;;37.13;18.20;;;3.70;99.90;2.80;101284;;;;584510;241;24114;-85
2022/03/25 01:17:06;;;;;;;37.87;16.87;;;3.70;99.90;2.70;101285;;;;584580;241;24155;-85
2022/03/25 01:19:31;;;;;;;36.07;17.00;;;3.60;99.90;2.60;101282;;;;584303;242;24143;-85
2022/03/25 01:21:59;;;;;;;37.10;17.10;;;3.60;99.90;2.60;101270;;;;575281;245;24130;-83
2022/03/25 01:24:27;;;;;;;36.60;18.80;;;3.60;99.90;2.60;101282;;;;575483;245;24079;-78
2022/03/25 01:26:54;;;;;;;36.83;18.13;;;3.50;99.90;2.60;101278;;;;575265;245;24120;-80
2022/03/25 01:29:22;;;;;;;34.63;17.47;;;3.50;99.90;2.60;101277;;;;575479;245;24083;-81
2022/03/25 01:31:50;;;;;;;33.87;17.97;;;3.50;99.90;2.60;101272;;;;575622;245;24100;-79
2022/03/25 01:34:18;;;;;;;33.13;17.10;;;3.50;99.90;2.60;101270;;;;575170;245;24132;-78
2022/03/25 01:36:49;;;;;;;47.35;24.80;;;3.50;99.90;2.60;101275;;;;570188;245;35355;-79
2022/03/25 01:39:14;;;;;;;32.70;18.30;;;3.60;99.90;2.70;101272;;;;574215;245;24119;-79
2022/03/25 01:41:46;;;;;;;32.80;15.20;;;3.60;99.90;2.70;101266;;;;584092;245;24165;-82
2022/03/25 01:44:11;;;;;;;30.13;16.03;;;3.60;99.90;2.70;101267;;;;565961;248;24159;-80
2022/03/25 01:46:38;;;;;;;29.80;14.50;;;3.60;99.90;2.70;101264;;;;575097;245;24101;-82
2022/03/25 01:49:06;;;;;;;39.60;16.63;;;3.70;99.90;2.70;101254;;;;575046;245;24170;-86
2022/03/25 01:51:37;;;;;;;43.13;15.63;;;3.70;99.90;2.70;101258;;;;574623;245;24094;-84
2022/03/25 01:54:05;;;;;;;35.00;17.60;;;3.70;99.90;2.70;101254;;;;575066;245;25147;-85
2022/03/25 01:56:34;;;;;;;38.20;17.50;;;3.70;99.90;2.70;101261;;;;573856;245;24116;-84
2022/03/25 01:59:00;;;;;;;30.83;16.73;;;3.60;99.90;2.70;101257;;;;575221;245;24107;-83
2022/03/25 02:01:28;;;;;;;37.23;17.27;;;3.60;99.90;2.70;101261;;;;575194;245;24150;-84
2022/03/25 02:04:00;;;;;;;37.43;16.30;;;3.60;99.90;2.70;101268;;;;575631;245;24108;-81
2022/03/25 02:06:28;;;;;;;38.97;17.23;;;3.70;99.90;2.70;101259;;;;575155;245;24123;-84
2022/03/25 02:08:56;;;;;;;43.90;18.03;;;3.60;99.90;2.70;101259;;;;575060;245;24154;-81
2022/03/25 02:11:28;;;;;;;28.77;16.60;;;3.70;99.90;2.80;101264;;;;575171;245;24131;-82
2022/03/25 02:13:52;;;;;;;42.90;18.63;;;3.70;99.90;2.80;101269;;;;576227;245;24148;-82
2022/03/25 02:16:19;;;;;;;34.80;17.80;;;3.70;99.90;2.80;101269;;;;576122;245;24087;-85
2022/03/25 02:18:47;;;;;;;44.97;19.13;;;3.70;99.90;2.90;101271;;;;575877;245;24139;-83
2022/03/25 02:21:15;;;;;;;41.73;17.40;;;3.70;99.90;2.80;101267;;;;575637;245;24123;-80
2022/03/25 02:23:43;;;;;;;41.20;17.07;;;3.70;99.90;2.80;101274;;;;575680;245;24100;-81
2022/03/25 02:26:11;;;;;;;39.73;18.67;;;3.70;99.90;2.80;101268;;;;575486;245;24109;-82
2022/03/25 02:28:40;;;;;;;39.47;19.17;;;3.70;99.90;2.80;101268;;;;584546;245;24115;-82
2022/03/25 02:31:08;;;;;;;36.77;17.33;;;3.70;99.90;2.80;101278;;;;575288;245;24105;-80
2022/03/25 02:33:39;;;;;;;38.13;18.27;;;3.80;99.90;2.80;101275;;;;575727;245;24110;-82
2022/03/25 02:36:04;;;;;;;54.05;26.17;;;3.70;99.90;2.80;101273;;;;569997;245;35383;-83
2022/03/25 02:38:32;;;;;;;38.63;21.20;;;3.70;99.90;2.80;101266;;;;575218;245;24071;-82
2022/03/25 02:41:00;;;;;;;40.30;18.07;;;3.70;99.90;2.80;101268;;;;575363;245;24134;-81
2022/03/25 02:43:28;;;;;;;42.37;20.07;;;3.70;99.90;2.70;101271;;;;575318;245;24129;-78
2022/03/25 02:45:56;;;;;;;39.27;18.57;;;3.70;99.90;2.70;101262;;;;575441;245;24100;-80
2022/03/25 02:48:24;;;;;;;35.27;16.33;;;3.70;99.90;2.70;101264;;;;575043;245;24115;-81
2022/03/25 02:50:52;;;;;;;35.83;15.53;;;3.60;99.90;2.70;101269;;;;575368;245;24173;-82
2022/03/25 02:53:20;;;;;;;54.15;28.60;;;3.60;99.90;2.70;101264;;;;570508;245;35348;-84
2022/03/25 02:55:48;;;;;;;38.97;21.03;;;3.60;99.90;2.70;101262;;;;575306;245;24137;-78
2022/03/25 02:58:16;;;;;;;44.10;18.13;;;3.60;99.90;2.70;101256;;;;575453;245;24111;-84
2022/03/25 03:00:44;;;;;;;38.40;17.47;;;3.60;99.90;2.70;101260;;;;575187;245;24093;-85
2022/03/25 03:03:15;;;;;;;41.13;18.47;;;3.60;99.90;2.60;101251;;;;575564;245;24073;-80
2022/03/25 03:05:43;;;;;;;34.67;17.33;;;3.60;99.90;2.60;101242;;;;584197;241;24163;-82
2022/03/25 03:08:09;;;;;;;43.73;20.67;;;3.60;99.90;2.60;101252;;;;579984;245;24093;-81
2022/03/25 03:10:36;;;;;;;43.53;18.73;;;3.50;99.90;2.60;101258;;;;575476;245;24079;-80
2022/03/25 03:13:07;;;;;;;43.77;19.00;;;3.50;99.90;2.60;101253;;;;584799;245;24170;-79
2022/03/25 03:15:32;;;;;;;39.10;19.13;;;3.50;99.90;2.50;101253;;;;584321;243;24103;-79
2022/03/25 03:18:00;;;;;;;42.37;19.10;;;3.50;99.90;2.50;101249;;;;575582;245;24157;-80
2022/03/25 03:20:31;;;;;;;40.20;20.00;;;3.40;99.90;2.50;101257;;;;575526;245;24131;-79
2022/03/25 03:22:57;;;;;;;36.27;18.30;;;3.40;99.90;2.50;101250;;;;575173;245;24081;-84
2022/03/25 03:25:26;;;;;;;37.00;20.07;;;3.50;99.90;2.50;101254;;;;576944;245;24213;-84
2022/03/25 03:27:53;;;;;;;39.27;19.70;;;3.50;99.90;2.60;101244;;;;576505;245;24134;-80
2022/03/25 03:30:22;;;;;;;42.37;20.07;;;3.50;99.90;2.60;101246;;;;584995;245;24129;-80
2022/03/25 03:32:55;;;;;;;43.13;19.97;;;3.50;99.90;2.60;101248;;;;576117;245;24131;-78
2022/03/25 03:35:17;;;;;;;39.67;19.60;;;3.50;99.90;2.50;101249;;;;575259;245;24147;-79
2022/03/25 03:37:45;;;;;;;47.77;21.03;;;3.50;99.90;2.50;101243;;;;575493;245;24084;-81
2022/03/25 03:40:14;;;;;;;47.37;21.70;;;3.40;99.90;2.40;101243;;;;580216;245;24111;-83
2022/03/25 03:42:44;;;;;;;46.03;20.50;;;3.40;99.90;2.40;101240;;;;575200;245;24117;-79
2022/03/25 03:45:13;;;;;;;48.80;21.77;;;3.40;99.90;2.50;101238;;;;574906;245;24121;-78
2022/03/25 03:47:38;;;;;;;46.93;20.90;;;3.40;99.90;2.50;101242;;;;575091;245;24169;-84
2022/03/25 03:50:06;;;;;;;47.23;20.87;;;3.40;99.90;2.50;101236;;;;584213;241;24129;-81
2022/03/25 03:52:34;;;;;;;48.07;21.63;;;3.40;99.90;2.50;101247;;;;579930;242;24095;-81
2022/03/25 03:55:02;;;;;;;52.33;21.17;;;3.40;99.90;2.40;101250;;;;575225;245;24139;-80
2022/03/25 03:57:32;;;;;;;43.00;20.57;;;3.40;99.90;2.40;101248;;;;584100;245;24102;-81
2022/03/25 03:59:57;;;;;;;43.10;18.97;;;3.40;99.90;2.40;101249;;;;583896;243;24077;-80
2022/03/25 04:02:25;;;;;;;46.13;20.10;;;3.40;99.90;2.40;101251;;;;575140;245;24072;-79
2022/03/25 04:04:54;;;;;;;48.57;23.63;;;3.40;99.90;2.40;101254;;;;575044;245;24077;-79
2022/03/25 04:07:23;;;;;;;40.50;19.73;;;3.40;99.90;2.40;101263;;;;574913;245;24121;-79
2022/03/25 04:09:51;;;;;;;45.20;22.37;;;3.40;99.90;2.40;101264;;;;575111;245;24075;-78
2022/03/25 04:12:19;;;;;;;40.23;20.77;;;3.40;99.90;2.40;101266;;;;575129;245;24139;-79
2022/03/25 04:14:48;;;;;;;35.47;18.93;;;3.40;99.90;2.50;101259;;;;575299;245;24089;-80
2022/03/25 04:17:15;;;;;;;45.80;21.70;;;3.40;99.90;2.50;101266;;;;575095;245;24101;-81
2022/03/25 04:19:44;;;;;;;47.57;22.73;;;3.40;99.90;2.50;101258;;;;574601;245;24144;-82
2022/03/25 04:22:12;;;;;;;45.00;20.57;;;3.40;99.90;2.40;101261;;;;575072;245;24109;-80
2022/03/25 04:24:40;;;;;;;38.03;18.60;;;3.40;99.90;2.50;101261;;;;575025;245;24102;-78
2022/03/25 04:27:09;;;;;;;51.87;22.87;;;3.40;99.90;2.50;101267;;;;575086;245;24100;-79
2022/03/25 04:29:36;;;;;;;57.97;22.57;;;3.40;99.90;2.50;101259;;;;574980;245;24072;-80
2022/03/25 04:32:04;;;;;;;45.87;20.60;;;3.40;99.90;2.50;101265;;;;575217;245;24103;-77
2022/03/25 04:34:33;;;;;;;43.73;21.60;;;3.50;99.90;2.60;101250;;;;575471;245;24139;-79
2022/03/25 04:37:01;;;;;;;54.40;22.80;;;3.50;99.90;2.60;101257;;;;585743;244;24113;-80
2022/03/25 04:39:29;;;;;;;46.13;21.27;;;3.50;99.90;2.60;101250;;;;576119;245;24100;-80
2022/03/25 04:41:56;;;;;;;43.40;20.07;;;3.50;99.90;2.60;101245;;;;575769;245;24110;-80
2022/03/25 04:44:28;;;;;;;49.80;22.37;;;3.60;99.90;2.60;101248;;;;575811;245;24104;-81
2022/03/25 04:46:54;;;;;;;42.83;22.00;;;3.60;99.90;2.60;101242;;;;575029;245;24167;-79
2022/03/25 04:49:24;;;;;;;49.30;23.53;;;3.60;99.90;2.60;101234;;;;575794;245;24141;-78
2022/03/25 04:51:48;;;;;;;39.73;20.87;;;3.50;99.90;2.60;101245;;;;575141;245;24096;-78
2022/03/25 04:54:16;;;;;;;49.10;22.30;;;3.50;99.90;2.60;101239;;;;575319;245;24089;-79
2022/03/25 04:56:44;;;;;;;44.53;22.90;;;3.50;99.90;2.60;101236;;;;575347;245;24211;-82
2022/03/25 04:59:12;;;;;;;51.73;23.47;;;3.60;99.90;2.70;101239;;;;575311;245;24104;-80
2022/03/25 05:01:40;;;;;;;46.73;21.83;;;3.60;99.90;2.80;101245;;;;575492;245;24149;-81
2022/03/25 05:04:08;;;;;;;45.13;21.43;;;3.70;99.90;2.90;101242;;;;575294;245;24099;-83
2022/03/25 05:06:36;;;;;;;48.80;21.23;;;3.80;99.90;3.00;101241;;;;575051;245;24088;-85
2022/03/25 05:09:04;;;;;;;52.10;23.77;;;3.90;99.90;3.10;101244;;;;575239;245;24074;-83
2022/03/25 05:11:31;;;;;;;49.10;22.90;;;4.00;99.90;3.20;101228;;;;575085;245;24127;-80
2022/03/25 05:13:59;;;;;;;45.80;21.27;;;4.10;99.90;3.30;101236;;;;575098;245;24136;-84
2022/03/25 05:16:27;;;;;;;49.70;21.10;;;4.20;99.90;3.40;101242;;;;574928;245;24079;-86
2022/03/25 05:18:55;;;;;;;42.83;20.90;;;4.30;99.90;3.50;101241;;;;574947;245;24094;-84
2022/03/25 05:21:23;;;;;;;47.30;22.70;;;4.40;99.90;3.60;101247;;;;574844;245;24095;-79
2022/03/25 05:23:51;;;;;;;52.17;22.23;;;4.50;99.90;3.80;101241;;;;574874;245;24208;-79
2022/03/25 05:26:20;;;;;;;49.87;20.90;;;4.70;99.90;3.90;101242;;;;575007;245;24092;-81
2022/03/25 05:28:48;;;;;;;34.40;17.33;;;4.80;99.90;4.00;101242;;;;574730;245;24086;-83
2022/03/25 05:31:15;;;;;;;41.53;19.30;;;4.90;99.90;4.20;101241;;;;575005;245;24076;-83
2022/03/25 05:33:43;;;;;;;56.22;32.97;;;5.00;99.90;4.30;101239;;;;569968;245;35430;-82
2022/03/25 05:36:11;;;;;;;53.53;25.33;;;5.10;99.90;4.50;101241;;;;575297;245;24131;-78
2022/03/25 05:38:39;;;;;;;59.63;22.73;;;5.30;99.90;4.90;101253;;;;575304;245;24082;-81
2022/03/25 05:41:07;;;;;;;60.95;35.33;;;5.60;99.90;6.00;101258;;;;569918;245;35328;-82
2022/03/25 05:43:35;;;;;;;51.87;25.87;;;6.50;99.90;7.20;101250;;;;575028;245;24088;-80
2022/03/25 05:46:07;;;;;;;45.10;23.80;;;7.60;99.90;8.30;101272;;;;574971;245;24112;-80
2022/03/25 05:48:35;;;;;;;45.77;25.50;;;9.70;99.90;9.40;101269;;;;576059;245;24162;-81
2022/03/25 05:51:00;;;;;;;49.83;26.10;;;10.70;99.90;10.30;101270;;;;575407;245;24126;-79
2022/03/25 05:53:29;;;;;;;45.80;24.77;;;11.60;99.90;11.20;101265;;;;575634;245;24106;-81
2022/03/25 05:55:59;;;;;;;50.70;26.57;;;12.50;99.50;12.00;101266;;;;575703;245;24084;-79
2022/03/25 05:58:26;;;;;;;46.17;27.53;;;12.50;99.50;12.60;101264;;;;575370;245;24127;-79
2022/03/25 06:00:54;;;;;;;43.80;26.57;;;13.10;95.10;13.40;101271;;;;575424;245;24080;-81
2022/03/25 06:03:22;;;;;;;52.30;28.67;;;14.80;86.30;14.40;101270;;;;575368;245;24099;-82
2022/03/25 06:05:51;;;;;;;44.23;26.97;;;15.40;81.00;14.90;101272;;;;575202;245;24112;-79
2022/03/25 06:08:20;;;;;;;46.57;27.90;;;16.10;77.80;15.60;101278;;;;575211;245;24123;-81
2022/03/25 06:10:49;;;;;;;47.40;28.80;;;16.80;72.80;16.40;101275;;;;575201;245;24134;-80
2022/03/25 06:13:16;;;;;;;45.73;30.37;;;16.80;72.80;16.90;101279;;;;575147;245;24154;-80
2022/03/25 06:15:44;;;;;;;48.37;31.70;;;17.40;69.20;17.70;101282;;;;575153;245;24154;-80
2022/03/25 06:18:12;;;;;;;47.07;29.97;;;18.10;65.10;18.20;101282;;;;575189;245;24107;-81
2022/03/25 06:20:40;;;;;;;52.67;34.23;;;18.70;62.30;18.60;101279;;;;575225;245;24122;-79
2022/03/25 06:23:08;;;;;;;50.23;33.00;;;19.10;60.00;19.20;101283;;;;575183;245;24064;-80
2022/03/25 06:25:36;;;;;;;59.20;35.67;;;19.70;58.70;20.10;101287;;;;575058;245;24077;-83
2022/03/25 06:28:07;;;;;;;58.27;38.60;;;20.50;56.40;20.80;101287;;;;575063;245;25594;-82
2022/03/25 06:30:34;;;;;;;59.60;42.87;;;21.20;54.50;21.30;101282;;;;574854;245;24084;-83
2022/03/25 06:33:00;;;;;;;59.57;40.10;;;21.80;53.00;21.60;101275;;;;579556;245;23146;-81
2022/03/25 06:35:28;;;;;;;54.87;38.13;;;22.20;51.30;21.90;101280;;;;574967;245;24170;-83
2022/03/25 06:37:56;;;;;;;47.03;35.93;;;22.40;50.20;22.40;101279;;;;584233;245;24101;-85
2022/03/25 06:40:23;;;;;;;48.20;34.23;;;22.90;49.20;23.00;101289;;;;584047;245;24103;-83
2022/03/25 06:42:57;;;;;;;59.93;36.63;;;23.90;47.10;23.40;101297;;;;579769;242;24131;-81
2022/03/25 06:45:23;;;;;;;43.73;35.80;;;23.80;47.20;24.00;101302;;;;584121;245;24096;-83
2022/03/25 06:47:51;;;;;;;44.60;34.73;;;24.80;45.40;24.30;101306;;;;585559;240;24120;-83
2022/03/25 06:50:23;;;;;;;44.20;35.90;;;24.70;45.30;24.80;101306;;;;575008;245;24167;-81
2022/03/25 06:52:47;;;;;;;49.97;36.80;;;25.20;45.10;25.50;101312;;;;574328;245;24181;-79
2022/03/25 06:55:15;;;;;;;44.77;36.63;;;25.90;44.40;25.90;101311;;;;574725;245;24121;-80
2022/03/25 06:57:43;;;;;;;47.37;37.50;;;26.40;43.30;26.30;101317;;;;583659;245;23140;-80
2022/03/25 07:00:15;;;;;;;46.10;36.60;;;26.70;42.20;26.40;101318;;;;576412;245;23096;-80
2022/03/25 07:02:42;;;;;;;43.60;35.87;;;26.90;41.80;26.80;101311;;;;575589;245;24139;-79
2022/03/25 07:05:08;;;;;;;51.37;37.30;;;27.60;40.90;27.00;101322;;;;575537;245;23094;-80
2022/03/25 07:07:36;;;;;;;46.97;35.70;;;27.50;40.80;27.60;101323;;;;575459;245;23134;-81
2022/03/25 07:10:05;;;;;;;49.47;37.43;;;28.30;39.60;27.70;101319;;;;575408;245;23215;-83
2022/03/25 07:12:33;;;;;;;45.93;36.40;;;28.20;39.60;27.40;101318;;;;575626;245;23096;-85
2022/03/25 07:15:00;;;;;;;45.90;38.00;;;28.10;39.70;27.60;101322;;;;575568;245;23098;-80
2022/03/25 07:17:30;;;;;;;44.90;37.60;;;28.10;39.60;27.50;101322;;;;584314;245;23129;-80
2022/03/25 07:19:56;;;;;;;46.67;37.90;;;28.00;39.40;27.80;101320;;;;575320;245;23130;-80
2022/03/25 07:22:25;;;;;;;43.87;37.80;;;28.50;39.00;28.30;101331;;;;575330;245;23103;-84
2022/03/25 07:24:54;;;;;;;44.17;38.93;;;29.00;38.60;28.80;101323;;;;575313;245;23105;-83
2022/03/25 07:27:22;;;;;;;48.53;39.45;;;29.50;38.10;29.30;101322;;;;575739;245;24098;-83
2022/03/25 07:29:51;;;;;;;43.87;38.43;;;29.80;37.80;29.40;101330;;;;575675;245;23107;-78
2022/03/25 07:32:20;;;;;;;47.70;39.35;;;30.20;37.30;29.80;101331;;;;575502;245;24088;-80
2022/03/25 07:34:48;;;;;;;51.25;39.83;;;30.60;36.90;30.30;101335;;;;575276;245;23174;-80
2022/03/25 07:37:17;;;;;;;51.28;40.03;;;30.90;36.40;30.60;101330;;;;575206;245;23126;-80
2022/03/25 07:39:46;;;;;;;49.25;40.25;;;31.20;36.10;30.90;101334;;;;575296;245;23095;-80
2022/03/25 07:42:14;;;;;;;49.40;42.17;;;31.10;36.00;31.40;101323;;;;575264;245;23083;-80
2022/03/25 07:44:42;;;;;;;47.05;41.63;;;31.70;35.70;31.80;101330;;;;574894;245;23134;-81
2022/03/25 07:47:14;;;;;;;47.10;41.95;;;32.10;35.20;31.90;101329;;;;574864;245;23127;-81
2022/03/25 07:49:40;;;;;;;48.55;42.45;;;32.20;35.00;31.90;101334;;;;583652;241;23121;-80
2022/03/25 07:52:09;;;;;;;48.63;43.30;;;32.70;34.70;32.50;101338;;;;575052;245;24166;-80
2022/03/25 07:54:40;;;;;;;47.60;41.37;;;32.60;34.60;32.90;101341;;;;575233;245;23149;-87
2022/03/25 07:57:05;;;;;;;47.30;41.03;;;33.10;34.20;33.00;101340;;;;583758;245;24117;-87
2022/03/25 07:59:33;;;;;;;47.17;42.28;;;33.50;33.90;33.00;101341;;;;579993;245;23170;-88
2022/03/25 08:02:01;;;;;;;45.65;40.85;;;33.40;33.70;33.40;101347;;;;583959;245;23102;-88
2022/03/25 08:04:29;;;;;;;45.30;40.53;;;33.80;33.70;33.90;101349;;;;575247;245;23128;-85
2022/03/25 08:06:57;;;;;;;47.75;40.53;;;34.90;32.60;34.50;101343;;;;575269;245;23128;-86
2022/03/25 08:09:25;;;;;;;44.60;37.95;;;34.80;32.50;34.50;101359;;;;575401;245;23152;-86
2022/03/25 08:11:53;;;;;;;43.95;39.45;;;35.20;32.30;34.70;101350;;;;576808;245;23177;-87
2022/03/25 08:14:21;;;;;;;42.78;38.10;;;35.30;32.40;34.90;101349;;;;576222;245;23123;-87
2022/03/25 08:16:49;;;;;;;46.05;37.97;;;35.50;31.80;34.50;101346;;;;576100;245;23087;-88
2022/03/25 08:19:17;;;;;;;42.20;37.33;;;35.30;31.90;34.90;101352;;;;575879;245;24128;-84
2022/03/25 08:21:45;;;;;;;41.90;36.25;;;35.40;31.80;35.00;101345;;;;575899;245;24118;-87
2022/03/25 08:29:46;;;;;;;35.20;29.77;;;35.70;31.10;35.10;101363;;;;575563;245;23133;-86
2022/03/25 08:32:13;;;;;;;36.55;29.52;;;35.70;31.20;35.20;101357;;;;575803;245;23158;-88
2022/03/25 08:34:41;;;;;;;30.70;25.92;;;35.80;31.80;35.60;101358;;;;575675;245;23094;-86
2022/03/25 08:37:09;;;;;;;31.80;25.50;;;36.10;30.90;36.10;101350;;;;575776;245;23081;-81
2022/03/25 08:39:37;;;;;;;29.15;25.45;;;36.60;30.70;35.20;101360;;;;575763;245;23211;-83
2022/03/25 08:42:08;;;;;;;36.17;27.25;;;36.10;31.10;35.00;101357;;;;575706;245;23145;-81
2022/03/25 08:44:33;;;;;;;41.15;26.42;;;35.80;31.60;35.10;101356;;;;584751;242;23114;-82
2022/03/25 08:47:01;;;;;;;29.17;26.08;;;35.80;31.60;35.30;101348;;;;575092;245;23126;-78
2022/03/25 08:49:31;;;;;;;30.12;26.95;;;36.00;31.60;35.40;101350;;;;574953;245;24113;-79
2022/03/25 08:51:58;;;;;;;28.77;25.35;;;36.40;31.20;35.80;101362;;;;574857;245;23120;-79
2022/03/25 08:54:25;;;;;;;30.70;25.55;;;36.40;31.10;35.70;101355;;;;574924;245;23092;-81
2022/03/25 08:56:53;;;;;;;29.60;26.52;;;36.50;31.00;35.60;101347;;;;574945;245;23117;-79
2022/03/25 08:59:21;;;;;;;32.80;27.20;;;36.50;31.10;35.80;101364;;;;574878;245;23141;-80
2022/03/25 09:01:49;;;;;;;34.15;30.52;;;36.70;31.00;35.90;101368;;;;575023;245;23105;-80
2022/03/25 09:04:18;;;;;;;31.87;28.40;;;36.90;31.00;36.00;101347;;;;574882;245;23109;-82
2022/03/25 09:06:46;;;;;;;31.33;27.10;;;36.90;31.00;35.90;101356;;;;575133;245;23102;-81
2022/03/25 09:09:14;;;;;;;32.00;28.02;;;36.90;30.90;36.00;101351;;;;574967;245;23136;-80
2022/03/25 09:11:42;;;;;;;34.33;27.25;;;37.20;30.70;36.30;101355;;;;575211;245;23104;-83
2022/03/25 09:14:11;;;;;;;34.38;26.70;;;37.10;30.60;36.10;101363;;;;575124;245;23094;-88
2022/03/25 09:16:38;;;;;;;33.60;27.45;;;37.20;30.60;36.20;101356;;;;575031;245;23221;-84
2022/03/25 09:19:06;;;;;;;29.85;26.65;;;37.20;30.50;36.00;101356;;;;575133;245;23086;-85
2022/03/25 09:21:34;;;;;;;30.83;25.33;;;37.20;30.30;35.30;101363;;;;575411;244;23084;-84
2022/03/25 09:24:02;;;;;;;29.75;24.60;;;36.50;30.90;34.60;101358;;;;576713;245;23093;-86
2022/03/25 09:26:30;;;;;;;25.67;23.15;;;36.00;30.90;33.60;101362;;;;576594;245;23081;-81
2022/03/25 09:28:58;;;;;;;27.77;23.00;;;35.00;31.60;33.80;101347;;;;576125;245;23132;-81
2022/03/25 09:31:26;;;;;;;23.90;21.33;;;34.90;32.00;34.00;101352;;;;576470;245;23140;-80
2022/03/25 09:35:08;;;;;;;33.80;21.75;;;35.00;31.70;34.00;101349;;;;576062;245;23084;-83
2022/03/25 09:36:22;;;;;;;28.08;22.27;;;35.10;31.70;34.00;101352;;;;576503;245;23102;-79
2022/03/25 09:38:51;;;;;;;32.88;20.73;;;35.10;31.30;33.70;101357;;;;575834;245;23133;-83
2022/03/25 09:41:20;;;;;;;31.05;21.00;;;34.20;31.90;32.20;101363;;;;576277;245;23129;-79
2022/03/25 09:43:48;;;;;;;23.77;21.23;;;33.20;32.80;31.00;101366;;;;576143;245;23093;-81
2022/03/25 09:46:16;;;;;;;30.88;21.20;;;33.10;32.80;30.10;101360;;;;575640;245;23109;-79
2022/03/25 09:48:44;;;;;;;27.48;21.37;;;32.30;33.60;29.20;101366;;;;575859;241;23101;-79
2022/03/25 09:51:12;;;;;;;29.95;21.05;;;31.30;34.30;28.60;101364;;;;576551;245;23111;-84
2022/03/25 09:53:40;;;;;;;30.45;21.15;;;30.70;35.10;28.80;101357;;;;575627;245;23151;-81
2022/03/25 09:56:08;;;;;;;31.73;21.40;;;30.50;35.50;29.00;101357;;;;580668;245;23140;-84
2022/03/25 09:58:36;;;;;;;30.48;21.77;;;30.70;35.50;29.40;101358;;;;584615;241;23095;-82
2022/03/25 10:01:04;;;;;;;25.77;21.40;;;31.00;35.20;29.50;101355;;;;584624;245;23091;-85
2022/03/25 10:03:40;;;;;;;27.08;21.33;;;31.30;34.80;28.90;101356;;;;575450;245;23090;-80
2022/03/25 10:06:04;;;;;;;22.85;20.15;;;30.90;35.00;28.80;101362;;;;573921;245;23195;-81
2022/03/25 10:08:36;;;;;;;27.23;22.53;;;30.80;35.20;28.30;101362;;;;583727;241;23104;-81
2022/03/25 10:11:30;;;;;;;27.67;22.00;;;30.50;35.30;28.20;101368;;;;575063;245;23103;-80
2022/03/25 10:14:15;;;;;;;34.75;20.42;;;30.30;35.80;28.20;101357;;;;575347;245;24164;-79
2022/03/25 10:16:46;;;;;;;24.73;19.25;;;30.40;35.60;28.50;101358;;;;574674;245;23108;-79
2022/03/25 10:19:11;;;;;;;29.52;19.37;;;30.60;35.40;28.10;101365;;;;574781;245;24198;-80
2022/03/25 10:21:54;;;;;;;26.80;19.60;;;30.40;36.10;27.40;101356;;;;575213;245;24128;-78
2022/03/25 10:24:47;;;;;;;37.83;20.83;;;29.70;36.00;26.20;101350;;;;568122;247;23180;-79
2022/03/25 10:27:14;;;;;;;30.27;17.83;;;28.60;37.20;24.60;101351;;;;575406;245;23122;-81
2022/03/25 10:29:42;;;;;;;21.80;18.00;;;25.50;40.40;23.50;101352;;;;572078;247;23175;-81
2022/03/25 10:32:15;;;;;;;26.93;18.50;;;24.20;42.10;22.30;101340;;;;568018;250;23133;-81
2022/03/25 10:34:42;;;;;;;26.90;18.07;;;24.10;42.00;21.50;101339;;;;569253;249;24142;-81
2022/03/25 10:37:13;;;;;;;22.83;17.60;;;23.10;43.90;21.00;101337;;;;565459;248;24111;-79
2022/03/25 10:39:40;;;;;;;22.87;16.83;;;22.20;45.20;20.20;101327;;;;568300;248;24116;-81
2022/03/25 10:42:08;;;;;;;21.50;15.80;;;21.40;46.60;19.50;101326;;;;568944;247;24113;-83
2022/03/25 10:44:40;;;;;;;23.70;15.57;;;20.60;48.20;19.00;101328;;;;586217;241;23118;-79
2022/03/25 10:47:17;;;;;;;19.10;14.10;;;19.40;50.50;18.60;101317;;;;576132;245;24157;-80
2022/03/25 10:49:46;;;;;;;22.73;14.90;;;19.30;50.40;18.20;101315;;;;575425;245;24081;-80
2022/03/25 10:52:37;;;;;;;29.77;15.03;;;18.90;51.20;17.60;101314;;;;584694;241;24108;-81
2022/03/25 10:55:22;;;;;;;25.73;13.73;;;18.40;52.30;17.20;101319;;;;584318;245;24095;-83
2022/03/25 10:57:50;;;;;;;25.47;14.00;;;17.90;53.50;16.80;101306;;;;575676;245;24116;-78
2022/03/25 11:00:22;;;;;;;29.77;12.57;;;17.10;55.20;16.50;101315;;;;575321;245;24136;-79
2022/03/25 11:02:51;;;;;;;23.87;13.50;;;16.80;55.80;16.30;101313;;;;580357;240;24077;-79
2022/03/25 11:05:20;;;;;;;23.60;13.00;;;16.60;56.50;16.00;101308;;;;580530;241;24097;-78
2022/03/25 11:07:48;;;;;;;24.07;13.90;;;16.40;57.20;15.80;101308;;;;584649;241;24110;-81
2022/03/25 11:10:14;;;;;;;40.70;22.25;;;16.20;58.20;15.60;101295;;;;570535;245;35313;-82
2022/03/25 11:12:45;;;;;;;34.87;18.93;;;16.20;58.20;15.50;101298;;;;575533;245;24167;-80